sensor_id;sensor_type;location;lat;lon;timestamp;P1;durP1;ratioP1;P2;durP2;ratioP2
73084;SDS011;62974;49.460;10.892;2023-06-14T00:00:00;3.92;;;3.00;;
73084;SDS011;62974;49.460;10.892;2023-06-14T00:02:31;4.70;;;3.13;;
73084;SDS011;62974;49.460;10.892;2023-06-14T00:04:59;4.85;;;3.15;;
73084;SDS011;62974;49.460;10.892;2023-06-14T00:07:33;5.35;;;2.95;;
73084;SDS011;62974;49.460;10.892;2023-06-14T00:10:02;5.45;;;3.28;;
73084;SDS011;62974;49.460;10.892;2023-06-14T00:12:30;4.88;;;3.58;;
73084;SDS011;62974;49.460;10.892;2023-06-14T00:14:58;5.50;;;3.63;;
73084;SDS011;62974;49.460;10.892;2023-06-14T00:17:27;7.38;;;3.40;;
73084;SDS011;62974;49.460;10.892;2023-06-14T00:19:57;5.35;;;3.30;;
73084;SDS011;62974;49.460;10.892;2023-06-14T00:22:25;5.10;;;3.25;;
73084;SDS011;62974;49.460;10.892;2023-06-14T00:24:54;5.97;;;3.60;;
73084;SDS011;62974;49.460;10.892;2023-06-14T00:27:22;6.65;;;3.60;;
73084;SDS011;62974;49.460;10.892;2023-06-14T00:29:49;4.90;;;3.35;;
73084;SDS011;62974;49.460;10.892;2023-06-14T00:32:17;6.35;;;3.58;;
73084;SDS011;62974;49.460;10.892;2023-06-14T00:34:46;6.53;;;3.30;;
73084;SDS011;62974;49.460;10.892;2023-06-14T00:37:14;5.35;;;3.38;;
73084;SDS011;62974;49.460;10.892;2023-06-14T00:39:42;5.40;;;3.08;;
73084;SDS011;62974;49.460;10.892;2023-06-14T00:42:10;8.38;;;3.40;;
73084;SDS011;62974;49.460;10.892;2023-06-14T00:44:37;5.20;;;3.10;;
73084;SDS011;62974;49.460;10.892;2023-06-14T00:47:05;4.68;;;3.28;;
73084;SDS011;62974;49.460;10.892;2023-06-14T00:49:32;5.78;;;3.35;;
73084;SDS011;62974;49.460;10.892;2023-06-14T00:52:00;4.43;;;3.00;;
73084;SDS011;62974;49.460;10.892;2023-06-14T00:54:29;4.28;;;3.38;;
73084;SDS011;62974;49.460;10.892;2023-06-14T00:56:57;5.10;;;3.15;;
73084;SDS011;62974;49.460;10.892;2023-06-14T00:59:25;5.05;;;3.00;;
73084;SDS011;62974;49.460;10.892;2023-06-14T01:01:52;5.32;;;3.30;;
73084;SDS011;62974;49.460;10.892;2023-06-14T01:04:20;4.18;;;3.28;;
73084;SDS011;62974;49.460;10.892;2023-06-14T01:06:49;5.88;;;3.78;;
73084;SDS011;62974;49.460;10.892;2023-06-14T01:09:32;5.45;;;3.28;;
73084;SDS011;62974;49.460;10.892;2023-06-14T01:12:09;4.78;;;3.58;;
73084;SDS011;62974;49.460;10.892;2023-06-14T01:14:42;5.40;;;3.67;;
73084;SDS011;62974;49.460;10.892;2023-06-14T01:17:11;4.85;;;3.22;;
73084;SDS011;62974;49.460;10.892;2023-06-14T01:19:43;4.95;;;3.38;;
73084;SDS011;62974;49.460;10.892;2023-06-14T01:22:11;4.60;;;3.42;;
73084;SDS011;62974;49.460;10.892;2023-06-14T01:24:40;5.70;;;3.88;;
73084;SDS011;62974;49.460;10.892;2023-06-14T01:27:12;4.78;;;3.40;;
73084;SDS011;62974;49.460;10.892;2023-06-14T01:29:41;6.72;;;3.67;;
73084;SDS011;62974;49.460;10.892;2023-06-14T01:32:12;4.82;;;3.30;;
73084;SDS011;62974;49.460;10.892;2023-06-14T01:34:40;4.45;;;3.67;;
73084;SDS011;62974;49.460;10.892;2023-06-14T01:37:08;7.28;;;2.90;;
73084;SDS011;62974;49.460;10.892;2023-06-14T01:39:36;6.15;;;3.78;;
73084;SDS011;62974;49.460;10.892;2023-06-14T01:42:06;5.47;;;3.58;;
73084;SDS011;62974;49.460;10.892;2023-06-14T01:44:34;4.72;;;3.50;;
73084;SDS011;62974;49.460;10.892;2023-06-14T01:47:02;5.90;;;4.00;;
73084;SDS011;62974;49.460;10.892;2023-06-14T01:49:32;6.07;;;3.80;;
73084;SDS011;62974;49.460;10.892;2023-06-14T01:52:00;5.78;;;3.45;;
73084;SDS011;62974;49.460;10.892;2023-06-14T01:54:28;4.65;;;3.22;;
73084;SDS011;62974;49.460;10.892;2023-06-14T01:56:57;5.20;;;3.67;;
73084;SDS011;62974;49.460;10.892;2023-06-14T01:59:26;5.18;;;3.45;;
73084;SDS011;62974;49.460;10.892;2023-06-14T02:01:53;5.57;;;3.63;;
73084;SDS011;62974;49.460;10.892;2023-06-14T02:04:21;5.85;;;3.95;;
73084;SDS011;62974;49.460;10.892;2023-06-14T02:06:48;6.95;;;3.45;;
73084;SDS011;62974;49.460;10.892;2023-06-14T02:09:16;4.85;;;3.45;;
73084;SDS011;62974;49.460;10.892;2023-06-14T02:11:44;4.43;;;3.30;;
73084;SDS011;62974;49.460;10.892;2023-06-14T02:14:12;5.90;;;3.53;;
73084;SDS011;62974;49.460;10.892;2023-06-14T02:16:42;4.88;;;3.10;;
73084;SDS011;62974;49.460;10.892;2023-06-14T02:19:14;5.57;;;3.85;;
73084;SDS011;62974;49.460;10.892;2023-06-14T02:21:42;5.75;;;4.00;;
73084;SDS011;62974;49.460;10.892;2023-06-14T02:26:38;7.20;;;3.60;;
73084;SDS011;62974;49.460;10.892;2023-06-14T02:29:07;5.93;;;3.95;;
73084;SDS011;62974;49.460;10.892;2023-06-14T02:31:37;6.28;;;3.67;;
73084;SDS011;62974;49.460;10.892;2023-06-14T02:36:35;4.18;;;3.30;;
73084;SDS011;62974;49.460;10.892;2023-06-14T02:39:07;5.70;;;3.97;;
73084;SDS011;62974;49.460;10.892;2023-06-14T02:41:36;4.75;;;3.58;;
73084;SDS011;62974;49.460;10.892;2023-06-14T02:44:04;5.20;;;3.65;;
73084;SDS011;62974;49.460;10.892;2023-06-14T02:46:32;5.70;;;3.53;;
73084;SDS011;62974;49.460;10.892;2023-06-14T02:49:00;5.93;;;3.90;;
73084;SDS011;62974;49.460;10.892;2023-06-14T02:51:29;5.03;;;3.58;;
73084;SDS011;62974;49.460;10.892;2023-06-14T02:53:57;4.75;;;3.50;;
73084;SDS011;62974;49.460;10.892;2023-06-14T02:56:25;6.72;;;3.78;;
73084;SDS011;62974;49.460;10.892;2023-06-14T02:58:53;5.07;;;3.78;;
73084;SDS011;62974;49.460;10.892;2023-06-14T03:01:21;5.15;;;3.88;;
73084;SDS011;62974;49.460;10.892;2023-06-14T03:03:49;6.18;;;4.18;;
73084;SDS011;62974;49.460;10.892;2023-06-14T03:06:17;7.10;;;3.75;;
73084;SDS011;62974;49.460;10.892;2023-06-14T03:08:46;5.65;;;3.80;;
73084;SDS011;62974;49.460;10.892;2023-06-14T03:11:15;5.97;;;3.40;;
73084;SDS011;62974;49.460;10.892;2023-06-14T03:16:11;6.32;;;3.47;;
73084;SDS011;62974;49.460;10.892;2023-06-14T03:18:39;4.80;;;3.55;;
73084;SDS011;62974;49.460;10.892;2023-06-14T03:21:06;7.38;;;3.85;;
73084;SDS011;62974;49.460;10.892;2023-06-14T03:23:35;4.45;;;3.45;;
73084;SDS011;62974;49.460;10.892;2023-06-14T03:26:03;5.55;;;4.00;;
73084;SDS011;62974;49.460;10.892;2023-06-14T03:28:31;6.70;;;4.00;;
73084;SDS011;62974;49.460;10.892;2023-06-14T03:30:59;5.22;;;3.58;;
73084;SDS011;62974;49.460;10.892;2023-06-14T03:33:27;5.88;;;3.85;;
73084;SDS011;62974;49.460;10.892;2023-06-14T03:35:55;8.48;;;3.83;;
73084;SDS011;62974;49.460;10.892;2023-06-14T03:40:51;4.65;;;3.15;;
73084;SDS011;62974;49.460;10.892;2023-06-14T03:43:20;6.53;;;3.70;;
73084;SDS011;62974;49.460;10.892;2023-06-14T03:45:47;5.10;;;3.67;;
73084;SDS011;62974;49.460;10.892;2023-06-14T03:48:15;6.38;;;3.88;;
73084;SDS011;62974;49.460;10.892;2023-06-14T03:50:43;5.30;;;3.28;;
73084;SDS011;62974;49.460;10.892;2023-06-14T03:53:10;5.70;;;3.80;;
73084;SDS011;62974;49.460;10.892;2023-06-14T03:55:38;5.05;;;3.35;;
73084;SDS011;62974;49.460;10.892;2023-06-14T03:58:28;4.47;;;3.30;;
73084;SDS011;62974;49.460;10.892;2023-06-14T04:00:55;5.47;;;3.75;;
73084;SDS011;62974;49.460;10.892;2023-06-14T04:03:23;8.05;;;4.15;;
73084;SDS011;62974;49.460;10.892;2023-06-14T04:05:56;6.18;;;3.78;;
73084;SDS011;62974;49.460;10.892;2023-06-14T04:08:26;5.63;;;3.75;;
73084;SDS011;62974;49.460;10.892;2023-06-14T04:10:53;5.00;;;3.50;;
73084;SDS011;62974;49.460;10.892;2023-06-14T04:13:21;5.28;;;3.30;;
73084;SDS011;62974;49.460;10.892;2023-06-14T04:15:50;6.10;;;3.58;;
73084;SDS011;62974;49.460;10.892;2023-06-14T04:18:18;6.80;;;3.50;;
73084;SDS011;62974;49.460;10.892;2023-06-14T04:20:50;5.97;;;3.30;;
73084;SDS011;62974;49.460;10.892;2023-06-14T04:23:17;6.10;;;3.50;;
73084;SDS011;62974;49.460;10.892;2023-06-14T04:25:45;5.38;;;3.33;;
73084;SDS011;62974;49.460;10.892;2023-06-14T04:28:13;5.25;;;3.70;;
73084;SDS011;62974;49.460;10.892;2023-06-14T04:30:41;7.18;;;3.58;;
73084;SDS011;62974;49.460;10.892;2023-06-14T04:33:11;4.75;;;3.35;;
73084;SDS011;62974;49.460;10.892;2023-06-14T04:35:38;4.85;;;3.55;;
73084;SDS011;62974;49.460;10.892;2023-06-14T04:38:06;7.68;;;3.58;;
73084;SDS011;62974;49.460;10.892;2023-06-14T04:40:35;8.02;;;3.28;;
73084;SDS011;62974;49.460;10.892;2023-06-14T04:43:09;5.47;;;3.35;;
73084;SDS011;62974;49.460;10.892;2023-06-14T04:45:38;4.88;;;3.22;;
73084;SDS011;62974;49.460;10.892;2023-06-14T04:50:36;6.60;;;3.30;;
73084;SDS011;62974;49.460;10.892;2023-06-14T04:53:03;4.57;;;3.15;;
73084;SDS011;62974;49.460;10.892;2023-06-14T04:55:33;4.97;;;3.53;;
73084;SDS011;62974;49.460;10.892;2023-06-14T04:58:00;4.93;;;2.83;;
73084;SDS011;62974;49.460;10.892;2023-06-14T05:00:28;5.30;;;3.67;;
73084;SDS011;62974;49.460;10.892;2023-06-14T05:05:24;6.25;;;3.83;;
73084;SDS011;62974;49.460;10.892;2023-06-14T05:07:53;6.32;;;3.50;;
73084;SDS011;62974;49.460;10.892;2023-06-14T05:10:20;6.97;;;3.35;;
73084;SDS011;62974;49.460;10.892;2023-06-14T05:12:48;4.97;;;3.63;;
73084;SDS011;62974;49.460;10.892;2023-06-14T05:15:16;3.95;;;2.70;;
73084;SDS011;62974;49.460;10.892;2023-06-14T05:17:44;5.22;;;3.00;;
73084;SDS011;62974;49.460;10.892;2023-06-14T05:20:14;3.78;;;2.90;;
73084;SDS011;62974;49.460;10.892;2023-06-14T05:22:41;4.60;;;3.40;;
73084;SDS011;62974;49.460;10.892;2023-06-14T05:25:10;6.47;;;3.30;;
73084;SDS011;62974;49.460;10.892;2023-06-14T05:27:38;5.45;;;3.70;;
73084;SDS011;62974;49.460;10.892;2023-06-14T05:30:08;6.68;;;3.53;;
73084;SDS011;62974;49.460;10.892;2023-06-14T05:32:36;6.40;;;3.40;;
73084;SDS011;62974;49.460;10.892;2023-06-14T05:35:04;6.45;;;3.42;;
73084;SDS011;62974;49.460;10.892;2023-06-14T05:37:33;7.18;;;2.78;;
73084;SDS011;62974;49.460;10.892;2023-06-14T05:40:00;4.47;;;2.88;;
73084;SDS011;62974;49.460;10.892;2023-06-14T05:42:31;7.57;;;3.40;;
73084;SDS011;62974;49.460;10.892;2023-06-14T05:44:59;4.50;;;2.95;;
73084;SDS011;62974;49.460;10.892;2023-06-14T05:47:26;5.72;;;3.35;;
73084;SDS011;62974;49.460;10.892;2023-06-14T05:49:54;7.10;;;3.28;;
73084;SDS011;62974;49.460;10.892;2023-06-14T05:52:22;5.38;;;3.20;;
73084;SDS011;62974;49.460;10.892;2023-06-14T05:54:49;4.03;;;3.10;;
73084;SDS011;62974;49.460;10.892;2023-06-14T05:57:17;4.07;;;3.22;;
73084;SDS011;62974;49.460;10.892;2023-06-14T05:59:46;5.13;;;3.50;;
73084;SDS011;62974;49.460;10.892;2023-06-14T06:02:13;5.10;;;3.00;;
73084;SDS011;62974;49.460;10.892;2023-06-14T06:04:41;5.05;;;3.42;;
73084;SDS011;62974;49.460;10.892;2023-06-14T06:07:08;4.40;;;2.80;;
73084;SDS011;62974;49.460;10.892;2023-06-14T06:09:36;3.67;;;2.72;;
73084;SDS011;62974;49.460;10.892;2023-06-14T06:12:05;5.43;;;3.55;;
73084;SDS011;62974;49.460;10.892;2023-06-14T06:14:34;5.55;;;3.75;;
73084;SDS011;62974;49.460;10.892;2023-06-14T06:17:03;4.88;;;3.50;;
73084;SDS011;62974;49.460;10.892;2023-06-14T06:19:31;5.03;;;3.22;;
73084;SDS011;62974;49.460;10.892;2023-06-14T06:21:58;3.92;;;3.30;;
73084;SDS011;62974;49.460;10.892;2023-06-14T06:24:26;6.28;;;3.65;;
73084;SDS011;62974;49.460;10.892;2023-06-14T06:26:54;4.30;;;2.70;;
73084;SDS011;62974;49.460;10.892;2023-06-14T06:29:21;5.78;;;3.53;;
73084;SDS011;62974;49.460;10.892;2023-06-14T06:31:49;3.65;;;2.88;;
73084;SDS011;62974;49.460;10.892;2023-06-14T06:34:18;6.70;;;3.22;;
73084;SDS011;62974;49.460;10.892;2023-06-14T06:36:45;6.65;;;2.85;;
73084;SDS011;62974;49.460;10.892;2023-06-14T06:39:13;5.10;;;3.25;;
73084;SDS011;62974;49.460;10.892;2023-06-14T06:41:41;5.25;;;3.22;;
73084;SDS011;62974;49.460;10.892;2023-06-14T06:44:08;4.60;;;2.75;;
73084;SDS011;62974;49.460;10.892;2023-06-14T06:46:36;6.65;;;3.40;;
73084;SDS011;62974;49.460;10.892;2023-06-14T06:49:06;5.93;;;3.08;;
73084;SDS011;62974;49.460;10.892;2023-06-14T06:51:36;5.22;;;3.50;;
73084;SDS011;62974;49.460;10.892;2023-06-14T06:54:04;5.60;;;3.45;;
73084;SDS011;62974;49.460;10.892;2023-06-14T06:56:34;4.25;;;3.03;;
73084;SDS011;62974;49.460;10.892;2023-06-14T06:59:02;4.90;;;3.00;;
73084;SDS011;62974;49.460;10.892;2023-06-14T07:01:29;5.00;;;2.67;;
73084;SDS011;62974;49.460;10.892;2023-06-14T07:04:00;5.78;;;3.40;;
73084;SDS011;62974;49.460;10.892;2023-06-14T07:06:29;5.53;;;3.25;;
73084;SDS011;62974;49.460;10.892;2023-06-14T07:08:58;4.45;;;2.78;;
73084;SDS011;62974;49.460;10.892;2023-06-14T07:11:27;6.07;;;3.22;;
73084;SDS011;62974;49.460;10.892;2023-06-14T07:13:55;4.90;;;3.40;;
73084;SDS011;62974;49.460;10.892;2023-06-14T07:16:22;5.18;;;2.30;;
73084;SDS011;62974;49.460;10.892;2023-06-14T07:18:50;5.82;;;3.25;;
73084;SDS011;62974;49.460;10.892;2023-06-14T07:21:17;5.25;;;2.60;;
73084;SDS011;62974;49.460;10.892;2023-06-14T07:23:45;4.70;;;2.70;;
73084;SDS011;62974;49.460;10.892;2023-06-14T07:26:14;4.10;;;2.78;;
73084;SDS011;62974;49.460;10.892;2023-06-14T07:28:42;6.43;;;3.08;;
73084;SDS011;62974;49.460;10.892;2023-06-14T07:31:11;4.20;;;2.83;;
73084;SDS011;62974;49.460;10.892;2023-06-14T07:33:39;6.25;;;2.95;;
73084;SDS011;62974;49.460;10.892;2023-06-14T07:36:08;6.55;;;3.20;;
73084;SDS011;62974;49.460;10.892;2023-06-14T07:38:35;4.55;;;3.30;;
73084;SDS011;62974;49.460;10.892;2023-06-14T07:41:03;3.60;;;2.47;;
73084;SDS011;62974;49.460;10.892;2023-06-14T07:43:32;3.50;;;2.83;;
73084;SDS011;62974;49.460;10.892;2023-06-14T07:46:00;6.10;;;3.10;;
73084;SDS011;62974;49.460;10.892;2023-06-14T07:48:33;6.63;;;2.90;;
73084;SDS011;62974;49.460;10.892;2023-06-14T07:51:01;2.63;;;1.80;;
73084;SDS011;62974;49.460;10.892;2023-06-14T07:53:28;4.03;;;2.70;;
73084;SDS011;62974;49.460;10.892;2023-06-14T07:55:56;5.20;;;2.70;;
73084;SDS011;62974;49.460;10.892;2023-06-14T07:58:24;5.13;;;3.10;;
73084;SDS011;62974;49.460;10.892;2023-06-14T08:00:53;3.17;;;1.95;;
73084;SDS011;62974;49.460;10.892;2023-06-14T08:03:21;5.20;;;2.45;;
73084;SDS011;62974;49.460;10.892;2023-06-14T08:05:49;4.95;;;2.67;;
73084;SDS011;62974;49.460;10.892;2023-06-14T08:08:17;5.28;;;3.00;;
73084;SDS011;62974;49.460;10.892;2023-06-14T08:10:44;4.35;;;2.78;;
73084;SDS011;62974;49.460;10.892;2023-06-14T08:13:12;4.88;;;3.00;;
73084;SDS011;62974;49.460;10.892;2023-06-14T08:15:39;2.13;;;1.83;;
73084;SDS011;62974;49.460;10.892;2023-06-14T08:18:08;4.32;;;2.80;;
73084;SDS011;62974;49.460;10.892;2023-06-14T08:20:36;5.15;;;2.45;;
73084;SDS011;62974;49.460;10.892;2023-06-14T08:23:03;6.10;;;2.60;;
73084;SDS011;62974;49.460;10.892;2023-06-14T08:25:31;3.30;;;2.03;;
73084;SDS011;62974;49.460;10.892;2023-06-14T08:27:59;3.67;;;2.22;;
73084;SDS011;62974;49.460;10.892;2023-06-14T08:30:26;3.83;;;2.50;;
73084;SDS011;62974;49.460;10.892;2023-06-14T08:32:54;4.53;;;2.50;;
73084;SDS011;62974;49.460;10.892;2023-06-14T08:35:42;3.58;;;2.55;;
73084;SDS011;62974;49.460;10.892;2023-06-14T08:38:09;5.68;;;2.45;;
73084;SDS011;62974;49.460;10.892;2023-06-14T08:40:38;4.50;;;3.38;;
73084;SDS011;62974;49.460;10.892;2023-06-14T08:43:07;5.35;;;3.10;;
73084;SDS011;62974;49.460;10.892;2023-06-14T08:45:34;4.22;;;2.28;;
73084;SDS011;62974;49.460;10.892;2023-06-14T08:48:02;5.05;;;2.40;;
73084;SDS011;62974;49.460;10.892;2023-06-14T08:50:33;3.83;;;2.65;;
73084;SDS011;62974;49.460;10.892;2023-06-14T08:53:05;3.95;;;2.38;;
73084;SDS011;62974;49.460;10.892;2023-06-14T08:55:36;4.22;;;2.53;;
73084;SDS011;62974;49.460;10.892;2023-06-14T08:58:09;6.38;;;3.13;;
73084;SDS011;62974;49.460;10.892;2023-06-14T09:00:40;3.92;;;2.50;;
73084;SDS011;62974;49.460;10.892;2023-06-14T09:03:09;4.20;;;2.20;;
73084;SDS011;62974;49.460;10.892;2023-06-14T09:05:40;4.03;;;2.80;;
73084;SDS011;62974;49.460;10.892;2023-06-14T09:08:12;6.53;;;3.03;;
73084;SDS011;62974;49.460;10.892;2023-06-14T09:10:39;5.15;;;2.45;;
73084;SDS011;62974;49.460;10.892;2023-06-14T09:13:07;4.28;;;2.78;;
73084;SDS011;62974;49.460;10.892;2023-06-14T09:15:35;4.43;;;3.10;;
73084;SDS011;62974;49.460;10.892;2023-06-14T09:18:03;4.22;;;2.70;;
73084;SDS011;62974;49.460;10.892;2023-06-14T09:20:32;3.35;;;2.90;;
73084;SDS011;62974;49.460;10.892;2023-06-14T09:23:00;5.82;;;2.88;;
73084;SDS011;62974;49.460;10.892;2023-06-14T09:25:29;6.07;;;3.00;;
73084;SDS011;62974;49.460;10.892;2023-06-14T09:28:06;3.85;;;2.92;;
73084;SDS011;62974;49.460;10.892;2023-06-14T09:30:36;3.20;;;2.45;;
73084;SDS011;62974;49.460;10.892;2023-06-14T09:33:05;4.10;;;2.78;;
73084;SDS011;62974;49.460;10.892;2023-06-14T09:35:32;4.05;;;3.13;;
73084;SDS011;62974;49.460;10.892;2023-06-14T09:38:00;3.58;;;2.58;;
73084;SDS011;62974;49.460;10.892;2023-06-14T09:40:30;3.40;;;2.22;;
73084;SDS011;62974;49.460;10.892;2023-06-14T09:43:02;5.65;;;3.22;;
73084;SDS011;62974;49.460;10.892;2023-06-14T09:45:31;3.25;;;2.70;;
73084;SDS011;62974;49.460;10.892;2023-06-14T09:47:58;3.53;;;2.70;;
73084;SDS011;62974;49.460;10.892;2023-06-14T09:50:33;4.18;;;2.58;;
73084;SDS011;62974;49.460;10.892;2023-06-14T09:53:02;3.15;;;2.33;;
73084;SDS011;62974;49.460;10.892;2023-06-14T09:55:34;4.18;;;2.53;;
73084;SDS011;62974;49.460;10.892;2023-06-14T09:58:04;3.65;;;2.55;;
73084;SDS011;62974;49.460;10.892;2023-06-14T10:00:34;3.40;;;2.53;;
73084;SDS011;62974;49.460;10.892;2023-06-14T10:03:05;5.00;;;2.97;;
73084;SDS011;62974;49.460;10.892;2023-06-14T10:05:38;3.95;;;2.30;;
73084;SDS011;62974;49.460;10.892;2023-06-14T10:08:09;4.00;;;2.42;;
73084;SDS011;62974;49.460;10.892;2023-06-14T10:10:39;5.00;;;2.75;;
73084;SDS011;62974;49.460;10.892;2023-06-14T10:13:07;4.72;;;2.95;;
73084;SDS011;62974;49.460;10.892;2023-06-14T10:15:38;4.05;;;2.83;;
73084;SDS011;62974;49.460;10.892;2023-06-14T10:18:11;4.32;;;2.70;;
73084;SDS011;62974;49.460;10.892;2023-06-14T10:20:50;5.88;;;3.00;;
73084;SDS011;62974;49.460;10.892;2023-06-14T10:23:22;3.45;;;2.50;;
73084;SDS011;62974;49.460;10.892;2023-06-14T10:25:56;5.43;;;2.70;;
73084;SDS011;62974;49.460;10.892;2023-06-14T10:28:26;3.60;;;2.78;;
73084;SDS011;62974;49.460;10.892;2023-06-14T10:31:03;5.28;;;2.75;;
73084;SDS011;62974;49.460;10.892;2023-06-14T10:33:31;3.70;;;2.50;;
73084;SDS011;62974;49.460;10.892;2023-06-14T10:38:56;4.93;;;2.85;;
73084;SDS011;62974;49.460;10.892;2023-06-14T10:41:26;2.65;;;2.15;;
73084;SDS011;62974;49.460;10.892;2023-06-14T10:44:10;3.97;;;2.30;;
73084;SDS011;62974;49.460;10.892;2023-06-14T10:46:58;3.00;;;1.92;;
73084;SDS011;62974;49.460;10.892;2023-06-14T10:49:36;6.53;;;3.40;;
73084;SDS011;62974;49.460;10.892;2023-06-14T10:52:09;4.45;;;2.63;;
73084;SDS011;62974;49.460;10.892;2023-06-14T10:57:33;4.03;;;3.05;;
73084;SDS011;62974;49.460;10.892;2023-06-14T11:00:16;2.90;;;2.30;;
73084;SDS011;62974;49.460;10.892;2023-06-14T11:02:50;5.90;;;3.00;;
73084;SDS011;62974;49.460;10.892;2023-06-14T11:05:25;4.47;;;3.05;;
73084;SDS011;62974;49.460;10.892;2023-06-14T11:10:49;4.10;;;2.95;;
73084;SDS011;62974;49.460;10.892;2023-06-14T11:13:18;6.63;;;3.17;;
73084;SDS011;62974;49.460;10.892;2023-06-14T11:15:47;3.00;;;2.35;;
73084;SDS011;62974;49.460;10.892;2023-06-14T11:18:15;3.75;;;2.45;;
73084;SDS011;62974;49.460;10.892;2023-06-14T11:20:45;5.97;;;2.47;;
73084;SDS011;62974;49.460;10.892;2023-06-14T11:23:13;6.03;;;2.50;;
73084;SDS011;62974;49.460;10.892;2023-06-14T11:25:41;4.32;;;2.95;;
73084;SDS011;62974;49.460;10.892;2023-06-14T11:28:09;3.80;;;2.70;;
73084;SDS011;62974;49.460;10.892;2023-06-14T11:30:37;4.40;;;3.05;;
73084;SDS011;62974;49.460;10.892;2023-06-14T11:33:09;5.35;;;3.00;;
73084;SDS011;62974;49.460;10.892;2023-06-14T11:35:37;5.80;;;2.90;;
73084;SDS011;62974;49.460;10.892;2023-06-14T11:38:04;4.60;;;2.25;;
73084;SDS011;62974;49.460;10.892;2023-06-14T11:40:32;3.30;;;2.70;;
73084;SDS011;62974;49.460;10.892;2023-06-14T11:43:00;3.55;;;2.38;;
73084;SDS011;62974;49.460;10.892;2023-06-14T11:45:28;4.13;;;2.90;;
73084;SDS011;62974;49.460;10.892;2023-06-14T11:47:58;3.60;;;2.40;;
73084;SDS011;62974;49.460;10.892;2023-06-14T11:50:27;4.07;;;2.33;;
73084;SDS011;62974;49.460;10.892;2023-06-14T11:52:55;4.45;;;2.83;;
73084;SDS011;62974;49.460;10.892;2023-06-14T11:55:25;4.97;;;2.40;;
73084;SDS011;62974;49.460;10.892;2023-06-14T11:57:53;5.47;;;2.85;;
73084;SDS011;62974;49.460;10.892;2023-06-14T12:00:24;5.25;;;2.90;;
73084;SDS011;62974;49.460;10.892;2023-06-14T12:02:53;3.65;;;2.40;;
73084;SDS011;62974;49.460;10.892;2023-06-14T12:05:24;5.68;;;2.80;;
73084;SDS011;62974;49.460;10.892;2023-06-14T12:07:57;2.83;;;1.70;;
73084;SDS011;62974;49.460;10.892;2023-06-14T12:10:26;4.03;;;2.40;;
73084;SDS011;62974;49.460;10.892;2023-06-14T12:12:56;4.43;;;3.10;;
73084;SDS011;62974;49.460;10.892;2023-06-14T12:15:27;5.78;;;2.67;;
73084;SDS011;62974;49.460;10.892;2023-06-14T12:17:57;4.50;;;3.17;;
73084;SDS011;62974;49.460;10.892;2023-06-14T12:20:29;5.40;;;2.70;;
73084;SDS011;62974;49.460;10.892;2023-06-14T12:22:58;4.57;;;2.90;;
73084;SDS011;62974;49.460;10.892;2023-06-14T12:25:29;3.20;;;2.50;;
73084;SDS011;62974;49.460;10.892;2023-06-14T12:27:58;5.07;;;2.60;;
73084;SDS011;62974;49.460;10.892;2023-06-14T12:30:27;4.20;;;2.75;;
73084;SDS011;62974;49.460;10.892;2023-06-14T12:32:55;3.28;;;2.55;;
73084;SDS011;62974;49.460;10.892;2023-06-14T12:35:22;3.60;;;2.70;;
73084;SDS011;62974;49.460;10.892;2023-06-14T12:37:52;3.58;;;2.50;;
73084;SDS011;62974;49.460;10.892;2023-06-14T12:40:21;3.30;;;2.35;;
73084;SDS011;62974;49.460;10.892;2023-06-14T12:42:48;3.55;;;2.30;;
73084;SDS011;62974;49.460;10.892;2023-06-14T12:45:16;3.72;;;2.70;;
73084;SDS011;62974;49.460;10.892;2023-06-14T12:47:44;4.60;;;2.85;;
73084;SDS011;62974;49.460;10.892;2023-06-14T12:50:15;4.32;;;2.35;;
73084;SDS011;62974;49.460;10.892;2023-06-14T12:52:43;4.30;;;2.83;;
73084;SDS011;62974;49.460;10.892;2023-06-14T12:55:12;3.25;;;2.50;;
73084;SDS011;62974;49.460;10.892;2023-06-14T12:57:40;2.58;;;1.75;;
73084;SDS011;62974;49.460;10.892;2023-06-14T13:00:08;4.65;;;2.63;;
73084;SDS011;62974;49.460;10.892;2023-06-14T13:02:37;3.35;;;2.47;;
73084;SDS011;62974;49.460;10.892;2023-06-14T13:05:05;4.05;;;2.50;;
73084;SDS011;62974;49.460;10.892;2023-06-14T13:07:33;5.53;;;2.30;;
73084;SDS011;62974;49.460;10.892;2023-06-14T13:10:00;4.40;;;2.60;;
73084;SDS011;62974;49.460;10.892;2023-06-14T13:14:57;4.45;;;2.75;;
73084;SDS011;62974;49.460;10.892;2023-06-14T13:17:25;3.33;;;2.10;;
73084;SDS011;62974;49.460;10.892;2023-06-14T13:19:55;5.82;;;2.85;;
73084;SDS011;62974;49.460;10.892;2023-06-14T13:22:23;3.72;;;2.58;;
73084;SDS011;62974;49.460;10.892;2023-06-14T13:24:50;3.50;;;2.30;;
73084;SDS011;62974;49.460;10.892;2023-06-14T13:27:18;3.60;;;2.38;;
73084;SDS011;62974;49.460;10.892;2023-06-14T13:29:47;3.33;;;2.13;;
73084;SDS011;62974;49.460;10.892;2023-06-14T13:32:15;4.13;;;2.53;;
73084;SDS011;62974;49.460;10.892;2023-06-14T13:37:10;4.65;;;2.25;;
73084;SDS011;62974;49.460;10.892;2023-06-14T13:39:37;7.13;;;2.50;;
73084;SDS011;62974;49.460;10.892;2023-06-14T13:42:05;3.55;;;2.38;;
73084;SDS011;62974;49.460;10.892;2023-06-14T13:44:33;3.42;;;2.28;;
73084;SDS011;62974;49.460;10.892;2023-06-14T13:47:02;3.75;;;2.38;;
73084;SDS011;62974;49.460;10.892;2023-06-14T13:49:30;4.65;;;2.35;;
73084;SDS011;62974;49.460;10.892;2023-06-14T13:52:00;3.88;;;2.38;;
73084;SDS011;62974;49.460;10.892;2023-06-14T13:54:28;4.75;;;2.22;;
73084;SDS011;62974;49.460;10.892;2023-06-14T13:56:55;2.78;;;2.20;;
73084;SDS011;62974;49.460;10.892;2023-06-14T13:59:23;5.10;;;2.40;;
73084;SDS011;62974;49.460;10.892;2023-06-14T14:01:50;2.95;;;2.20;;
73084;SDS011;62974;49.460;10.892;2023-06-14T14:04:20;3.67;;;2.20;;
73084;SDS011;62974;49.460;10.892;2023-06-14T14:06:47;3.47;;;2.35;;
73084;SDS011;62974;49.460;10.892;2023-06-14T14:09:15;3.13;;;1.85;;
73084;SDS011;62974;49.460;10.892;2023-06-14T14:14:11;2.75;;;2.03;;
73084;SDS011;62974;49.460;10.892;2023-06-14T14:16:38;3.28;;;2.35;;
73084;SDS011;62974;49.460;10.892;2023-06-14T14:19:06;4.53;;;2.15;;
73084;SDS011;62974;49.460;10.892;2023-06-14T14:24:04;2.95;;;1.95;;
73084;SDS011;62974;49.460;10.892;2023-06-14T14:26:32;3.28;;;2.60;;
73084;SDS011;62974;49.460;10.892;2023-06-14T14:28:59;3.35;;;2.47;;
73084;SDS011;62974;49.460;10.892;2023-06-14T14:31:28;4.32;;;2.33;;
73084;SDS011;62974;49.460;10.892;2023-06-14T14:33:57;3.50;;;2.40;;
73084;SDS011;62974;49.460;10.892;2023-06-14T14:36:25;3.13;;;2.20;;
73084;SDS011;62974;49.460;10.892;2023-06-14T14:38:53;3.40;;;2.10;;
73084;SDS011;62974;49.460;10.892;2023-06-14T14:41:21;3.15;;;2.00;;
73084;SDS011;62974;49.460;10.892;2023-06-14T14:43:49;3.33;;;2.28;;
73084;SDS011;62974;49.460;10.892;2023-06-14T14:46:16;4.05;;;2.30;;
73084;SDS011;62974;49.460;10.892;2023-06-14T14:48:44;4.35;;;2.40;;
73084;SDS011;62974;49.460;10.892;2023-06-14T14:53:40;3.55;;;2.67;;
73084;SDS011;62974;49.460;10.892;2023-06-14T14:56:09;3.00;;;2.30;;
73084;SDS011;62974;49.460;10.892;2023-06-14T14:58:38;2.95;;;2.05;;
73084;SDS011;62974;49.460;10.892;2023-06-14T15:01:07;4.47;;;2.45;;
73084;SDS011;62974;49.460;10.892;2023-06-14T15:06:23;4.68;;;2.40;;
73084;SDS011;62974;49.460;10.892;2023-06-14T15:08:50;2.80;;;2.50;;
73084;SDS011;62974;49.460;10.892;2023-06-14T15:11:20;3.47;;;2.30;;
73084;SDS011;62974;49.460;10.892;2023-06-14T15:13:47;3.00;;;2.38;;
73084;SDS011;62974;49.460;10.892;2023-06-14T15:16:19;3.97;;;2.22;;
73084;SDS011;62974;49.460;10.892;2023-06-14T15:18:47;3.00;;;2.40;;
73084;SDS011;62974;49.460;10.892;2023-06-14T15:21:16;3.88;;;1.90;;